createdAt,value
2022-12-03T00:00:34.331Z,97.80
2022-12-03T00:03:01.133Z,96.22
2022-12-03T00:05:27.965Z,88.90
2022-12-03T00:07:54.894Z,101.50
2022-12-03T00:10:21.640Z,98.35
2022-12-03T00:12:48.306Z,109.03
2022-12-03T00:15:17.146Z,101.70
2022-12-03T00:17:43.803Z,98.90
2022-12-03T00:20:19.895Z,94.18
2022-12-03T00:22:46.776Z,101.35
2022-12-03T00:25:14.575Z,102.03
2022-12-03T00:27:41.696Z,102.35
2022-12-03T00:30:11.139Z,99.30
2022-12-03T00:32:37.926Z,106.22
2022-12-03T00:35:04.945Z,99.20
2022-12-03T00:37:31.665Z,114.50
2022-12-03T00:39:58.322Z,107.00
2022-12-03T00:42:25.114Z,105.68
2022-12-03T00:44:52.089Z,99.43
2022-12-03T00:47:19.023Z,100.28
2022-12-03T00:49:45.840Z,97.50
2022-12-03T00:52:12.625Z,92.22
2022-12-03T00:54:39.257Z,94.63
2022-12-03T00:57:05.916Z,108.78
2022-12-03T00:59:32.641Z,101.35
2022-12-03T01:01:59.290Z,107.47
2022-12-03T01:04:26.114Z,98.40
2022-12-03T01:06:52.919Z,94.90
2022-12-03T01:09:19.615Z,101.15
2022-12-03T01:11:46.275Z,98.47
2022-12-03T01:14:17.920Z,102.95
2022-12-03T01:16:45.009Z,99.07
2022-12-03T01:19:15.814Z,95.60
2022-12-03T01:21:44.299Z,98.22
2022-12-03T01:24:11.319Z,99.35
2022-12-03T01:26:38.211Z,93.40
2022-12-03T01:29:05.469Z,108.70
2022-12-03T01:31:50.724Z,94.80
2022-12-03T01:34:17.551Z,98.40
2022-12-03T01:36:44.225Z,104.05
2022-12-03T01:39:10.954Z,104.47
2022-12-03T01:41:39.062Z,106.80
2022-12-03T01:44:16.050Z,102.10
2022-12-03T01:46:43.363Z,92.47
2022-12-03T01:49:20.031Z,113.03
2022-12-03T01:51:48.656Z,106.88
2022-12-03T01:54:22.246Z,96.78
2022-12-03T01:56:49.493Z,96.95
2022-12-03T01:59:18.274Z,98.35
2022-12-03T02:01:45.053Z,101.68
2022-12-03T02:04:14.348Z,104.15
2022-12-03T02:06:42.148Z,103.28
2022-12-03T02:09:13.144Z,96.40
2022-12-03T02:11:50.205Z,98.03
2022-12-03T02:14:21.640Z,95.68
2022-12-03T02:16:48.880Z,107.32
2022-12-03T02:19:26.651Z,99.40
2022-12-03T02:21:56.172Z,88.75
2022-12-03T02:24:47.065Z,90.50
2022-12-03T02:27:13.970Z,100.20
2022-12-03T02:29:40.651Z,101.85
2022-12-03T02:32:07.450Z,89.60
2022-12-03T02:34:36.652Z,96.97
2022-12-03T02:37:05.066Z,89.47
2022-12-03T02:39:33.450Z,96.68
2022-12-03T02:42:18.592Z,98.07
2022-12-03T02:44:45.303Z,102.35
2022-12-03T02:47:12.278Z,88.78
2022-12-03T02:49:39.095Z,92.07
2022-12-03T02:52:05.798Z,97.13
2022-12-03T02:54:32.488Z,93.22
2022-12-03T02:56:59.367Z,87.30
2022-12-03T02:59:26.070Z,86.50
2022-12-03T03:01:54.097Z,98.80
2022-12-03T03:04:22.531Z,97.88
2022-12-03T03:06:49.252Z,107.82
2022-12-03T03:09:16.262Z,99.47
2022-12-03T03:11:43.054Z,92.82
2022-12-03T03:14:09.779Z,100.50
2022-12-03T03:16:36.676Z,95.25
2022-12-03T03:19:03.434Z,95.03
2022-12-03T03:21:30.118Z,95.13
2022-12-03T03:23:56.847Z,91.80
2022-12-03T03:26:23.528Z,99.15
2022-12-03T03:28:51.605Z,97.00
2022-12-03T03:31:21.872Z,94.18
2022-12-03T03:33:49.541Z,91.75
2022-12-03T03:36:16.633Z,86.38
2022-12-03T03:38:43.522Z,96.93
2022-12-03T03:41:12.294Z,88.50
2022-12-03T03:43:40.204Z,100.25
2022-12-03T03:46:07.737Z,95.78
2022-12-03T03:48:35.567Z,101.90
2022-12-03T03:51:08.745Z,93.82
2022-12-03T03:53:38.962Z,92.78
2022-12-03T03:56:06.231Z,96.65
2022-12-03T03:58:33.130Z,89.32
2022-12-03T04:01:00.981Z,97.60
2022-12-03T04:03:29.107Z,96.97
2022-12-03T04:05:55.813Z,93.25
2022-12-03T04:08:22.601Z,89.82
2022-12-03T04:11:07.991Z,98.93
2022-12-03T04:13:34.711Z,96.97
2022-12-03T04:16:01.411Z,104.60
2022-12-03T04:18:42.961Z,98.63
2022-12-03T04:21:36.273Z,93.47
2022-12-03T04:24:04.274Z,91.20
2022-12-03T04:26:50.216Z,85.30
2022-12-03T04:29:17.023Z,90.57
2022-12-03T04:32:02.360Z,87.68
2022-12-03T04:34:47.841Z,92.03
2022-12-03T04:37:14.544Z,93.65
2022-12-03T04:39:41.303Z,94.63
2022-12-03T04:42:07.988Z,92.15
2022-12-03T04:44:38.230Z,104.70
2022-12-03T04:47:10.041Z,100.00
2022-12-03T04:49:39.461Z,96.70
2022-12-03T04:52:06.816Z,87.45
2022-12-03T04:54:33.881Z,92.63
2022-12-03T04:57:00.739Z,97.43
2022-12-03T04:59:27.920Z,89.45
2022-12-03T05:01:54.647Z,90.78
2022-12-03T05:04:21.603Z,93.70
2022-12-03T05:06:48.291Z,101.53
2022-12-03T05:09:15.117Z,86.63
2022-12-03T05:11:42.197Z,96.72
2022-12-03T05:14:09.938Z,94.97
2022-12-03T05:16:37.656Z,95.80
2022-12-03T05:19:05.943Z,90.15
2022-12-03T05:21:32.966Z,97.65
2022-12-03T05:23:59.698Z,105.85
2022-12-03T05:26:27.435Z,114.15
2022-12-03T05:28:54.138Z,105.90
2022-12-03T05:31:20.979Z,100.35
2022-12-03T05:33:47.818Z,96.18
2022-12-03T05:36:14.539Z,102.10
2022-12-03T05:38:41.197Z,114.05
2022-12-03T05:41:27.923Z,112.45
2022-12-03T05:43:54.904Z,98.60
2022-12-03T05:46:21.642Z,117.25
2022-12-03T05:48:48.318Z,111.00
2022-12-03T05:51:15.038Z,114.40
2022-12-03T05:53:41.872Z,127.47
2022-12-03T05:56:11.062Z,134.98
2022-12-03T05:58:37.713Z,124.78
2022-12-03T06:01:04.391Z,116.60
2022-12-03T06:03:31.481Z,118.63
2022-12-03T06:05:58.214Z,125.88
2022-12-03T06:08:25.132Z,137.85
2022-12-03T06:10:51.824Z,130.30
2022-12-03T06:13:18.537Z,134.77
2022-12-03T06:15:45.255Z,145.68
2022-12-03T06:18:12.185Z,152.63
2022-12-03T06:20:38.965Z,139.93
2022-12-03T06:23:05.623Z,139.63
2022-12-03T06:25:32.295Z,135.43
2022-12-03T06:27:59.131Z,140.60
2022-12-03T06:30:25.776Z,137.88
2022-12-03T06:32:52.735Z,140.73
2022-12-03T06:35:19.391Z,142.68
2022-12-03T06:37:46.039Z,151.00
2022-12-03T06:40:13.461Z,144.35
2022-12-03T06:42:40.108Z,148.13
2022-12-03T06:45:07.047Z,148.60
2022-12-03T06:47:33.751Z,145.10
2022-12-03T06:50:00.559Z,137.02
2022-12-03T06:52:27.265Z,141.65
2022-12-03T06:54:54.193Z,135.57
2022-12-03T06:57:21.036Z,137.95
2022-12-03T06:59:47.896Z,139.77
2022-12-03T07:02:14.520Z,139.25
2022-12-03T07:04:46.077Z,145.80
2022-12-03T07:07:13.741Z,146.23
2022-12-03T07:09:40.430Z,136.02
2022-12-03T07:12:07.246Z,145.32
2022-12-03T07:14:33.961Z,147.23
2022-12-03T07:17:00.631Z,155.07
2022-12-03T07:19:32.368Z,160.18
2022-12-03T07:21:59.974Z,152.82
2022-12-03T07:24:27.078Z,142.75
2022-12-03T07:26:53.687Z,150.23
2022-12-03T07:29:20.475Z,152.43
2022-12-03T07:31:47.217Z,145.85
2022-12-03T07:34:13.977Z,161.82
2022-12-03T07:36:40.657Z,165.73
2022-12-03T07:39:08.915Z,155.77
2022-12-03T07:41:37.677Z,152.88
2022-12-03T07:44:09.162Z,146.65
2022-12-03T07:46:39.305Z,152.07
2022-12-03T07:49:06.026Z,167.02
2022-12-03T07:51:32.760Z,160.05
2022-12-03T07:53:59.467Z,153.10
2022-12-03T07:56:26.098Z,155.45
2022-12-03T07:58:52.894Z,164.35
2022-12-03T08:01:19.623Z,163.52
2022-12-03T08:03:46.325Z,161.45
2022-12-03T08:06:13.070Z,143.77
2022-12-03T08:08:40.105Z,169.93
2022-12-03T08:11:07.069Z,143.15
2022-12-03T08:13:35.033Z,154.75
2022-12-03T08:16:19.274Z,154.55
2022-12-03T08:18:49.861Z,160.45
2022-12-03T08:21:19.399Z,147.23
2022-12-03T08:23:46.173Z,154.48
2022-12-03T08:26:27.962Z,165.18
2022-12-03T08:29:18.635Z,154.43
2022-12-03T08:31:54.884Z,156.43
2022-12-03T08:34:23.952Z,163.05
2022-12-03T08:36:59.660Z,155.57
2022-12-03T08:39:33.793Z,147.82
2022-12-03T08:42:31.767Z,162.90
2022-12-03T08:45:29.675Z,148.25
2022-12-03T08:48:07.363Z,143.77
2022-12-03T08:50:39.606Z,146.27
2022-12-03T08:53:35.976Z,142.38
2022-12-03T08:56:20.155Z,144.82
2022-12-03T08:58:51.758Z,144.55
2022-12-03T09:01:27.251Z,152.40
2022-12-03T09:03:56.077Z,151.88
2022-12-03T09:06:22.893Z,140.70
2022-12-03T09:08:49.562Z,150.10
2022-12-03T09:11:16.918Z,144.75
2022-12-03T09:13:43.803Z,148.05
2022-12-03T09:16:10.524Z,139.98
2022-12-03T09:18:37.151Z,131.93
2022-12-03T09:21:04.036Z,144.07
2022-12-03T09:23:31.765Z,130.68
2022-12-03T09:25:59.008Z,144.90
2022-12-03T09:28:25.774Z,133.25
2022-12-03T09:30:52.415Z,148.57
2022-12-03T09:33:19.273Z,144.75
2022-12-03T09:35:45.911Z,140.75
2022-12-03T09:38:12.576Z,148.18
2022-12-03T09:40:39.499Z,154.75
2022-12-03T09:43:06.413Z,148.82
2022-12-03T09:45:33.031Z,144.85
2022-12-03T09:48:04.002Z,145.55
2022-12-03T09:50:31.947Z,145.00
2022-12-03T09:53:02.565Z,139.88
2022-12-03T09:55:30.620Z,144.73
2022-12-03T09:57:57.818Z,148.68
2022-12-03T10:00:28.095Z,137.88
2022-12-03T10:02:58.382Z,139.10
2022-12-03T10:05:25.734Z,150.25
2022-12-03T10:07:52.939Z,146.82
2022-12-03T10:10:23.938Z,136.95
2022-12-03T10:12:52.641Z,156.07
2022-12-03T10:15:23.459Z,142.20
2022-12-03T10:17:52.854Z,136.05
2022-12-03T10:20:22.371Z,133.27
2022-12-03T10:22:49.806Z,121.57
2022-12-03T10:25:19.790Z,131.02
2022-12-03T10:28:02.033Z,141.32
2022-12-03T10:30:29.554Z,134.23
2022-12-03T10:32:58.457Z,147.55
2022-12-03T10:35:41.922Z,139.23
2022-12-03T10:38:22.266Z,123.57
2022-12-03T10:40:53.702Z,121.72
2022-12-03T10:43:24.648Z,115.05
2022-12-03T10:46:13.471Z,140.57
2022-12-03T10:48:40.211Z,112.38
2022-12-03T10:51:21.322Z,123.28
2022-12-03T10:53:50.377Z,117.18
2022-12-03T10:56:25.474Z,129.43
2022-12-03T10:58:52.770Z,121.40
2022-12-03T11:01:22.468Z,133.77
2022-12-03T11:03:51.636Z,127.87
2022-12-03T11:06:21.258Z,131.18
2022-12-03T11:08:57.798Z,117.55
2022-12-03T11:11:29.160Z,140.52
2022-12-03T11:13:59.325Z,145.68
2022-12-03T11:16:41.023Z,156.45
2022-12-03T11:19:13.538Z,162.40
2022-12-03T11:22:05.064Z,143.38
2022-12-03T11:24:36.728Z,113.43
2022-12-03T11:27:03.366Z,131.55
2022-12-03T11:29:54.768Z,121.40
2022-12-03T11:32:42.963Z,97.20
2022-12-03T11:35:25.157Z,70.47
2022-12-03T11:37:52.162Z,78.43
2022-12-03T11:40:18.736Z,79.85
2022-12-03T11:42:47.464Z,78.45
2022-12-03T11:45:19.336Z,92.35
2022-12-03T11:48:07.743Z,66.50
2022-12-03T11:50:41.439Z,67.13
2022-12-03T11:53:11.007Z,62.30
2022-12-03T11:56:08.337Z,73.25
2022-12-03T11:58:40.954Z,82.97
2022-12-03T12:01:08.798Z,75.22
2022-12-03T12:03:44.319Z,80.40
2022-12-03T12:06:17.512Z,72.32
2022-12-03T12:08:57.526Z,86.72
2022-12-03T12:11:34.116Z,80.55
2022-12-03T12:14:06.218Z,78.25
2022-12-03T12:16:52.132Z,90.07
2022-12-03T12:19:34.551Z,94.53
2022-12-03T12:22:34.891Z,84.13
2022-12-03T12:25:04.180Z,106.85
2022-12-03T12:27:38.276Z,101.47
2022-12-03T12:30:14.158Z,90.03
2022-12-03T12:32:52.318Z,94.93
2022-12-03T12:35:32.993Z,102.75
2022-12-03T12:40:42.009Z,91.72
2022-12-03T12:43:27.390Z,87.40
2022-12-03T12:45:56.120Z,99.30
2022-12-03T12:48:32.694Z,101.82
2022-12-03T12:51:19.136Z,84.45
2022-12-03T12:53:46.170Z,90.88
2022-12-03T12:56:45.666Z,95.30
2022-12-03T12:59:16.581Z,91.78
2022-12-03T13:01:44.981Z,93.80
2022-12-03T13:04:14.366Z,88.78
2022-12-03T13:06:41.845Z,90.70
2022-12-03T13:09:20.647Z,98.55
2022-12-03T13:11:53.271Z,96.20
2022-12-03T13:14:22.466Z,92.60
2022-12-03T13:16:51.169Z,93.13
2022-12-03T13:19:28.602Z,103.03
2022-12-03T13:22:10.458Z,97.15
2022-12-03T13:24:40.547Z,92.63
2022-12-03T13:27:16.282Z,86.90
2022-12-03T13:29:44.143Z,96.03
2022-12-03T13:32:18.967Z,105.88
2022-12-03T13:34:46.657Z,84.82
2022-12-03T13:37:25.477Z,95.32
2022-12-03T13:39:55.240Z,88.15
2022-12-03T13:42:39.523Z,81.20
2022-12-03T13:45:24.657Z,87.00
2022-12-03T13:47:57.916Z,86.43
2022-12-03T13:50:36.863Z,109.07
2022-12-03T13:53:11.327Z,91.90
2022-12-03T13:55:47.286Z,95.95
2022-12-03T13:58:14.098Z,99.35
2022-12-03T14:00:40.808Z,98.18
2022-12-03T14:03:07.700Z,102.15
2022-12-03T14:05:34.422Z,103.82
2022-12-03T14:08:04.872Z,103.07
2022-12-03T14:10:31.890Z,109.25
2022-12-03T14:12:58.671Z,91.05
2022-12-03T14:15:26.436Z,82.13
2022-12-03T14:17:53.360Z,87.30
2022-12-03T14:20:20.607Z,88.45
2022-12-03T14:22:47.278Z,91.45
2022-12-03T14:25:13.998Z,80.38
2022-12-03T14:27:40.716Z,85.32
2022-12-03T14:30:08.027Z,84.32
2022-12-03T14:32:34.818Z,83.30
2022-12-03T14:35:09.848Z,85.45
2022-12-03T14:37:38.690Z,86.65
2022-12-03T14:40:08.819Z,81.45
2022-12-03T14:42:36.459Z,90.00
2022-12-03T14:45:03.548Z,91.97
2022-12-03T14:47:30.606Z,97.10
2022-12-03T14:49:58.002Z,95.95
2022-12-03T14:52:24.706Z,90.22
2022-12-03T14:54:53.002Z,98.30
2022-12-03T14:57:20.110Z,99.70
2022-12-03T14:59:49.311Z,91.25
2022-12-03T15:02:16.286Z,89.50
2022-12-03T15:04:43.326Z,94.90
2022-12-03T15:07:10.057Z,108.47
2022-12-03T15:09:36.959Z,107.20
2022-12-03T15:12:04.788Z,104.85
2022-12-03T15:14:31.499Z,103.43
2022-12-03T15:16:58.328Z,109.85
2022-12-03T15:19:25.358Z,107.20
2022-12-03T15:21:52.083Z,99.20
2022-12-03T15:24:18.867Z,92.47
2022-12-03T15:26:45.801Z,87.80
2022-12-03T15:29:12.722Z,96.93
2022-12-03T15:31:39.442Z,106.05
2022-12-03T15:34:06.376Z,120.20
2022-12-03T15:36:33.060Z,111.97
2022-12-03T15:39:00.089Z,110.32
2022-12-03T15:41:29.616Z,108.15
2022-12-03T15:43:58.804Z,88.90
2022-12-03T15:46:27.809Z,90.43
2022-12-03T15:48:55.608Z,94.05
2022-12-03T15:51:22.611Z,103.72
2022-12-03T15:53:49.494Z,113.93
2022-12-03T15:56:16.541Z,89.75
2022-12-03T15:58:43.544Z,84.40
2022-12-03T16:01:13.646Z,100.90
2022-12-03T16:03:41.342Z,92.80
2022-12-03T16:06:09.099Z,91.38
2022-12-03T16:08:36.237Z,90.45
2022-12-03T16:11:04.318Z,99.22
2022-12-03T16:13:30.960Z,97.03
2022-12-03T16:15:57.934Z,79.25
2022-12-03T16:18:24.750Z,85.65
2022-12-03T16:20:54.648Z,81.75
2022-12-03T16:23:21.524Z,87.40
2022-12-03T16:25:48.249Z,88.05
2022-12-03T16:28:15.048Z,87.15
2022-12-03T16:30:42.853Z,89.30
2022-12-03T16:33:09.720Z,97.20
2022-12-03T16:35:36.358Z,87.32
2022-12-03T16:38:03.216Z,97.32
2022-12-03T16:40:33.948Z,87.20
2022-12-03T16:43:03.263Z,90.57
2022-12-03T16:45:33.455Z,103.72
2022-12-03T16:48:04.442Z,99.00
2022-12-03T16:50:31.467Z,103.20
2022-12-03T16:52:58.501Z,107.32
2022-12-03T16:55:25.560Z,114.57
2022-12-03T16:57:52.501Z,123.28
2022-12-03T17:03:03.278Z,124.35
2022-12-03T17:05:29.986Z,126.72
2022-12-03T17:07:56.957Z,111.95
2022-12-03T17:10:29.093Z,120.45
2022-12-03T17:13:11.354Z,128.93
2022-12-03T17:15:38.931Z,131.02
2022-12-03T17:18:06.911Z,123.43
2022-12-03T17:20:39.692Z,119.43
2022-12-03T17:23:40.287Z,109.60
2022-12-03T17:26:07.146Z,120.00
2022-12-03T17:28:37.073Z,122.93
2022-12-03T17:31:04.224Z,115.28
2022-12-03T17:33:30.973Z,119.20
2022-12-03T17:35:57.797Z,117.80
2022-12-03T17:38:26.067Z,115.78
2022-12-03T17:40:52.904Z,127.45
2022-12-03T17:43:19.975Z,123.20
2022-12-03T17:45:48.925Z,151.98
2022-12-03T17:48:15.759Z,162.38
2022-12-03T17:50:42.449Z,155.52
2022-12-03T17:53:10.506Z,155.55
2022-12-03T17:55:45.030Z,159.02
2022-12-03T17:58:12.130Z,145.15
2022-12-03T18:00:50.569Z,133.05
2022-12-03T18:03:21.216Z,129.93
2022-12-03T18:08:32.602Z,134.70
2022-12-03T18:11:06.767Z,135.40
2022-12-03T18:13:33.441Z,126.57
2022-12-03T18:16:00.206Z,127.03
2022-12-03T18:18:27.063Z,127.43
2022-12-03T18:20:54.058Z,133.93
2022-12-03T18:23:20.934Z,128.95
2022-12-03T18:25:47.734Z,129.98
2022-12-03T18:28:15.158Z,119.05
2022-12-03T18:30:42.216Z,124.80
2022-12-03T18:33:10.814Z,137.25
2022-12-03T18:35:39.793Z,128.18
2022-12-03T18:38:06.458Z,140.05
2022-12-03T18:40:33.236Z,130.18
2022-12-03T18:43:02.362Z,130.02
2022-12-03T18:45:30.807Z,123.53
2022-12-03T18:47:59.943Z,129.07
2022-12-03T18:50:27.051Z,132.07
2022-12-03T18:52:53.690Z,130.88
2022-12-03T18:55:21.976Z,141.45
2022-12-03T18:57:50.986Z,134.48
2022-12-03T19:00:19.297Z,135.27
2022-12-03T19:03:03.461Z,124.60
2022-12-03T19:05:33.334Z,130.75
2022-12-03T19:08:00.775Z,140.23
2022-12-03T19:10:27.742Z,130.02
2022-12-03T19:12:54.628Z,114.70
2022-12-03T19:15:21.331Z,136.98
2022-12-03T19:17:49.654Z,152.38
2022-12-03T19:20:16.791Z,139.95
2022-12-03T19:22:43.660Z,114.60
2022-12-03T19:25:10.342Z,121.32
2022-12-03T19:27:37.237Z,108.22
2022-12-03T19:30:05.440Z,109.88
2022-12-03T19:32:33.843Z,110.13
2022-12-03T19:35:05.214Z,107.18
2022-12-03T19:37:34.037Z,110.68
2022-12-03T19:40:01.061Z,107.30
2022-12-03T19:42:27.978Z,110.13
2022-12-03T19:44:54.626Z,111.85
2022-12-03T19:47:21.568Z,109.47
2022-12-03T19:49:48.526Z,114.18
2022-12-03T19:52:15.181Z,114.07
2022-12-03T19:54:45.497Z,110.15
2022-12-03T19:57:12.619Z,122.60
2022-12-03T19:59:39.307Z,121.82
2022-12-03T20:02:07.529Z,109.55
2022-12-03T20:04:34.435Z,115.80
2022-12-03T20:07:01.132Z,113.40
2022-12-03T20:09:29.051Z,122.53
2022-12-03T20:11:55.966Z,120.45
2022-12-03T20:14:25.523Z,127.65
2022-12-03T20:16:52.255Z,117.65
2022-12-03T20:19:21.611Z,115.97
2022-12-03T20:21:48.259Z,117.68
2022-12-03T20:24:17.135Z,120.78
2022-12-03T20:26:43.917Z,118.47
2022-12-03T20:29:10.590Z,122.00
2022-12-03T20:31:37.759Z,134.32
2022-12-03T20:34:04.705Z,109.28
2022-12-03T20:36:34.969Z,120.20
2022-12-03T20:39:07.140Z,124.88
2022-12-03T20:41:37.663Z,125.78
2022-12-03T20:44:06.275Z,121.03
2022-12-03T20:46:33.247Z,133.60
2022-12-03T20:49:00.067Z,128.73
2022-12-03T20:51:29.688Z,104.45
2022-12-03T20:53:57.340Z,123.65
2022-12-03T20:56:27.273Z,111.05
2022-12-03T20:58:54.362Z,113.07
2022-12-03T21:01:27.303Z,117.75
2022-12-03T21:03:56.164Z,111.75
2022-12-03T21:06:24.986Z,110.38
2022-12-03T21:08:57.827Z,123.60
2022-12-03T21:11:26.868Z,125.88
2022-12-03T21:13:54.526Z,130.40
2022-12-03T21:16:45.667Z,124.47
2022-12-03T21:19:11.470Z,107.30
2022-12-03T21:21:39.038Z,110.18
2022-12-03T21:24:09.070Z,124.65
2022-12-03T21:29:36.331Z,98.40
2022-12-03T21:32:05.854Z,103.03
2022-12-03T21:34:36.100Z,111.88
2022-12-03T21:39:31.866Z,113.53
2022-12-03T21:42:34.366Z,97.53
2022-12-03T21:44:45.421Z,95.88
2022-12-03T21:47:14.346Z,94.38
2022-12-03T21:49:41.801Z,101.68
2022-12-03T21:52:12.933Z,100.40
2022-12-03T21:54:39.650Z,97.80
2022-12-03T21:57:06.286Z,109.95
2022-12-03T21:59:42.430Z,108.80
2022-12-03T22:02:10.738Z,117.88
2022-12-03T22:04:37.552Z,98.70
2022-12-03T22:07:05.171Z,105.22
2022-12-03T22:09:32.610Z,116.30
2022-12-03T22:12:00.858Z,106.32
2022-12-03T22:14:28.787Z,109.90
2022-12-03T22:16:55.852Z,118.18
2022-12-03T22:19:23.469Z,111.40
2022-12-03T22:21:50.311Z,125.55
2022-12-03T22:24:18.819Z,115.93
2022-12-03T22:26:46.275Z,123.65
2022-12-03T22:29:13.212Z,110.63
2022-12-03T22:31:42.445Z,117.88
2022-12-03T22:34:09.137Z,118.85
2022-12-03T22:36:37.091Z,116.63
2022-12-03T22:39:06.619Z,97.22
2022-12-03T22:41:35.431Z,107.65
2022-12-03T22:44:06.090Z,110.85
2022-12-03T22:49:06.388Z,105.10
2022-12-03T22:51:34.487Z,113.45
2022-12-03T22:54:01.993Z,100.65
2022-12-03T22:56:30.483Z,98.65
2022-12-03T22:58:58.019Z,124.03
2022-12-03T23:01:31.997Z,115.72
2022-12-03T23:03:59.771Z,109.10
2022-12-03T23:06:27.080Z,120.30
2022-12-03T23:08:54.463Z,124.53
2022-12-03T23:11:22.148Z,93.28
2022-12-03T23:13:49.025Z,106.65
2022-12-03T23:16:18.268Z,103.32
2022-12-03T23:18:47.264Z,95.15
2022-12-03T23:21:25.393Z,91.72
2022-12-03T23:23:55.652Z,86.75
2022-12-03T23:26:22.787Z,88.32
2022-12-03T23:28:49.931Z,87.32
2022-12-03T23:31:26.317Z,81.90
2022-12-03T23:33:54.102Z,92.97
2022-12-03T23:36:23.687Z,84.72
2022-12-03T23:38:50.971Z,83.97
2022-12-03T23:41:20.631Z,100.65
2022-12-03T23:43:48.976Z,89.13
2022-12-03T23:46:21.518Z,90.75
2022-12-03T23:48:49.164Z,93.10
2022-12-03T23:51:38.465Z,87.80
2022-12-03T23:54:07.202Z,84.35
2022-12-03T23:56:34.884Z,83.25
2022-12-03T23:59:01.762Z,86.18
